createdAt,value
2018-12-20T00:02:29.121Z,36.80
2018-12-20T00:05:04.148Z,39.93
2018-12-20T00:07:39.930Z,43.00
2018-12-20T00:10:28.439Z,36.40
2018-12-20T00:13:20.055Z,37.33
2018-12-20T00:16:02.074Z,37.50
2018-12-20T00:18:37.632Z,37.47
2018-12-20T00:21:21.181Z,35.73
2018-12-20T00:47:18.576Z,30.40
2018-12-20T00:49:58.773Z,32.63
2018-12-20T00:55:58.353Z,34.87
2018-12-20T01:17:49.882Z,28.00
2018-12-20T01:20:27.940Z,29.67
2018-12-20T01:23:00.407Z,30.83
2018-12-20T01:25:37.428Z,27.30
2018-12-20T01:28:09.453Z,26.77
2018-12-20T01:30:50.410Z,25.13
2018-12-20T01:33:23.029Z,28.63
2018-12-20T01:36:02.091Z,24.90
2018-12-20T01:38:34.012Z,26.93
2018-12-20T01:41:11.032Z,28.03
2018-12-20T01:43:42.918Z,25.77
2018-12-20T01:46:18.719Z,28.77
2018-12-20T01:48:52.041Z,24.97
2018-12-20T01:51:27.948Z,25.97
2018-12-20T01:54:03.811Z,25.70
2018-12-20T01:56:35.606Z,25.00
2018-12-20T01:59:11.805Z,23.77
2018-12-20T02:01:48.673Z,23.70
2018-12-20T02:04:22.686Z,26.53
2018-12-20T02:06:54.899Z,22.57
2018-12-20T02:09:34.041Z,24.70
2018-12-20T02:12:09.146Z,26.93
2018-12-20T02:14:49.079Z,24.10
2018-12-20T02:17:30.472Z,28.37
2018-12-20T02:20:10.241Z,25.67
2018-12-20T02:22:48.276Z,27.73
2018-12-20T02:25:27.365Z,21.73
2018-12-20T02:28:03.609Z,27.33
2018-12-20T02:30:36.679Z,25.60
2018-12-20T02:33:13.707Z,24.63
2018-12-20T02:36:09.461Z,23.77
2018-12-20T02:38:45.986Z,27.27
2018-12-20T02:41:18.302Z,26.83
2018-12-20T04:28:55.878Z,21.63
2018-12-20T04:31:28.786Z,22.50
2018-12-20T04:34:01.487Z,22.83
2018-12-20T04:36:32.028Z,22.27
2018-12-20T04:39:05.597Z,21.20
2018-12-20T04:41:42.455Z,20.80
2018-12-20T04:44:14.345Z,21.97
2018-12-20T04:46:46.176Z,19.03
2018-12-20T04:49:17.947Z,23.33
2018-12-20T04:51:49.655Z,19.87
2018-12-20T04:54:21.515Z,24.60
2018-12-20T04:56:53.368Z,22.23
2018-12-20T04:59:30.259Z,23.67
2018-12-20T05:02:06.255Z,29.13
2018-12-20T05:04:45.578Z,23.27
2018-12-20T05:07:21.342Z,24.50
2018-12-20T05:09:57.412Z,23.37
2018-12-20T05:12:34.084Z,22.40
2018-12-20T05:15:10.604Z,20.93
2018-12-20T05:17:42.632Z,20.70
2018-12-20T05:20:14.198Z,23.60
2018-12-20T05:22:55.740Z,23.07
2018-12-20T05:25:38.154Z,23.33
2018-12-20T05:28:09.817Z,20.10
2018-12-20T05:30:57.312Z,22.23
2018-12-20T05:59:20.755Z,21.33
2018-12-20T06:02:02.381Z,21.13
2018-12-20T06:04:40.959Z,22.00
2018-12-20T06:07:30.083Z,22.63
2018-12-20T06:10:08.096Z,23.13
2018-12-20T06:12:48.844Z,22.43
2018-12-20T06:15:19.529Z,20.93
2018-12-20T06:18:02.099Z,21.80
2018-12-20T06:21:00.662Z,19.83
2018-12-20T06:27:15.141Z,20.23
2018-12-20T06:29:51.722Z,19.20
2018-12-20T06:32:31.092Z,22.40
2018-12-20T06:35:15.828Z,23.03
2018-12-20T06:37:48.517Z,21.60
2018-12-20T06:40:20.067Z,20.30
2018-12-20T06:42:57.059Z,20.70
2018-12-20T06:45:27.719Z,20.07
2018-12-20T06:47:56.294Z,24.90
2018-12-20T06:50:25.041Z,26.20
2018-12-20T06:52:53.574Z,32.13
2018-12-20T06:55:22.208Z,25.47
2018-12-20T06:57:50.695Z,24.17
2018-12-20T07:00:19.334Z,24.37
2018-12-20T07:02:47.869Z,19.50
2018-12-20T07:05:16.414Z,22.97
2018-12-20T07:07:45.040Z,22.83
2018-12-20T07:10:13.663Z,25.53
2018-12-20T07:12:42.308Z,25.93
2018-12-20T07:15:10.945Z,24.80
2018-12-20T07:17:39.364Z,24.13
2018-12-20T07:20:08.109Z,23.43
2018-12-20T07:22:36.716Z,23.40
2018-12-20T07:25:05.493Z,23.47
2018-12-20T07:27:36.217Z,23.00
2018-12-20T07:30:05.875Z,23.73
2018-12-20T07:32:34.591Z,25.87
2018-12-20T07:35:03.099Z,23.67
2018-12-20T07:37:32.516Z,24.57
2018-12-20T07:40:01.739Z,24.63
2018-12-20T07:42:30.198Z,24.00
2018-12-20T07:44:58.873Z,25.57
2018-12-20T07:47:27.519Z,33.00
2018-12-20T07:49:56.038Z,30.90
2018-12-20T07:52:24.630Z,29.67
2018-12-20T07:54:53.318Z,28.07
2018-12-20T07:57:21.900Z,31.47
2018-12-20T07:59:50.639Z,32.23
2018-12-20T08:02:19.093Z,37.87
2018-12-20T08:04:47.639Z,32.37
2018-12-20T08:07:16.243Z,28.43
2018-12-20T08:09:51.929Z,31.03
2018-12-20T08:12:20.519Z,31.97
2018-12-20T08:14:49.158Z,29.37
2018-12-20T08:17:17.839Z,32.33
2018-12-20T08:19:46.269Z,30.97
2018-12-20T08:22:14.905Z,29.33
2018-12-20T08:24:43.649Z,26.93
2018-12-20T08:27:12.195Z,25.63
2018-12-20T08:29:40.860Z,26.60
2018-12-20T08:32:09.479Z,26.10
2018-12-20T08:34:37.899Z,28.13
2018-12-20T08:37:06.490Z,35.10
2018-12-20T08:39:35.160Z,28.73
2018-12-20T08:42:03.660Z,28.10
2018-12-20T08:44:32.220Z,26.97
2018-12-20T08:47:00.920Z,24.73
2018-12-20T08:49:29.520Z,26.07
2018-12-20T08:51:58.210Z,23.73
2018-12-20T08:54:26.688Z,25.43
2018-12-20T08:56:55.309Z,23.90
2018-12-20T08:59:23.961Z,23.80
2018-12-20T09:01:52.654Z,24.40
2018-12-20T09:04:21.250Z,24.97
2018-12-20T09:06:49.710Z,25.47
2018-12-20T09:09:18.282Z,31.20
2018-12-20T09:11:47.011Z,28.00
2018-12-20T09:14:16.307Z,26.40
2018-12-20T09:16:45.020Z,28.20
2018-12-20T09:19:13.642Z,30.13
2018-12-20T09:21:42.941Z,30.27
2018-12-20T09:24:11.821Z,29.60
2018-12-20T09:26:40.200Z,28.37
2018-12-20T09:29:08.681Z,27.90
2018-12-20T09:31:37.409Z,31.30
2018-12-20T09:34:05.801Z,30.13
2018-12-20T09:36:34.320Z,32.53
2018-12-20T09:39:03.050Z,30.73
2018-12-20T09:41:31.760Z,31.43
2018-12-20T09:44:00.260Z,33.07
2018-12-20T09:46:29.039Z,31.57
2018-12-20T09:48:57.548Z,33.83
2018-12-20T09:51:26.235Z,31.13
2018-12-20T09:53:54.860Z,30.07
2018-12-20T09:56:23.500Z,32.40
2018-12-20T09:58:52.052Z,34.10
2018-12-20T10:01:20.641Z,33.30
2018-12-20T10:03:49.215Z,35.07
2018-12-20T10:06:17.966Z,37.90
2018-12-20T10:08:46.521Z,34.43
2018-12-20T10:11:15.150Z,37.27
2018-12-20T10:13:44.061Z,34.80
2018-12-20T10:16:13.391Z,35.70
2018-12-20T10:18:42.020Z,34.70
2018-12-20T10:21:10.760Z,40.57
2018-12-20T10:23:39.461Z,35.50
2018-12-20T10:26:07.960Z,36.90
2018-12-20T10:28:36.650Z,37.20
2018-12-20T10:31:05.220Z,38.13
2018-12-20T10:33:33.791Z,37.37
2018-12-20T10:36:02.390Z,37.07
2018-12-20T10:38:31.036Z,35.53
2018-12-20T10:40:59.690Z,35.70
2018-12-20T10:43:28.200Z,35.00
2018-12-20T10:45:56.901Z,38.77
2018-12-20T10:48:25.472Z,37.87
2018-12-20T10:50:54.011Z,39.77
2018-12-20T10:53:22.671Z,34.67
2018-12-20T10:55:51.330Z,39.77
2018-12-20T10:58:21.447Z,36.60
2018-12-20T11:00:54.370Z,40.67
2018-12-20T11:03:27.400Z,35.20
2018-12-20T11:06:00.139Z,39.43
2018-12-20T11:08:30.186Z,34.93
2018-12-20T11:11:04.853Z,39.87
2018-12-20T11:13:33.371Z,38.90
2018-12-20T11:16:01.995Z,37.50
2018-12-20T11:18:30.520Z,41.43
2018-12-20T11:20:58.969Z,36.07
2018-12-20T11:23:28.363Z,35.63
2018-12-20T11:25:57.133Z,38.67
2018-12-20T11:28:25.594Z,36.97
2018-12-20T11:30:54.120Z,37.93
2018-12-20T11:33:22.743Z,37.10
2018-12-20T11:35:51.134Z,40.90
2018-12-20T11:38:19.739Z,42.17
2018-12-20T11:40:48.164Z,42.80
2018-12-20T11:43:16.771Z,40.87
2018-12-20T11:45:45.400Z,39.37
2018-12-20T11:48:13.939Z,41.97
2018-12-20T11:50:42.402Z,41.57
2018-12-20T11:53:11.061Z,44.63
2018-12-20T11:55:39.651Z,39.57
2018-12-20T11:58:08.212Z,42.03
2018-12-20T12:00:37.244Z,45.30
2018-12-20T12:03:05.990Z,42.63
2018-12-20T12:05:34.815Z,41.90
2018-12-20T12:08:03.391Z,44.13
2018-12-20T12:10:31.865Z,41.90
2018-12-20T12:13:00.614Z,42.57
2018-12-20T12:15:29.421Z,44.37
2018-12-20T12:17:57.921Z,44.13
2018-12-20T12:20:26.591Z,39.43
2018-12-20T12:22:55.350Z,41.70
2018-12-20T12:25:23.940Z,42.77
2018-12-20T12:27:52.840Z,46.07
2018-12-20T12:30:21.434Z,46.63
2018-12-20T12:32:50.072Z,38.97
2018-12-20T12:35:18.702Z,42.30
2018-12-20T12:37:47.287Z,38.60
2018-12-20T12:40:15.970Z,43.70
2018-12-20T12:42:44.629Z,43.43
2018-12-20T12:45:13.080Z,41.30
2018-12-20T12:47:45.818Z,43.43
2018-12-20T12:50:14.495Z,45.27
2018-12-20T12:52:42.990Z,44.07
2018-12-20T12:55:11.630Z,44.30
2018-12-20T12:57:40.171Z,49.20
2018-12-20T13:00:09.570Z,41.43
2018-12-20T13:02:38.197Z,44.43
2018-12-20T13:05:06.991Z,43.53
2018-12-20T13:07:35.641Z,47.93
2018-12-20T13:10:04.400Z,50.37
2018-12-20T13:12:33.015Z,49.93
2018-12-20T13:15:01.671Z,52.77
2018-12-20T13:17:30.293Z,58.20
2018-12-20T13:19:58.870Z,50.93
2018-12-20T13:22:27.500Z,45.60
2018-12-20T13:24:56.071Z,43.70
2018-12-20T13:27:24.567Z,46.37
2018-12-20T13:29:53.291Z,46.37
2018-12-20T13:32:21.982Z,51.07
2018-12-20T13:34:50.583Z,51.17
2018-12-20T13:37:19.182Z,55.13
2018-12-20T13:39:47.804Z,50.97
2018-12-20T13:42:16.441Z,51.77
2018-12-20T13:44:45.073Z,58.03
2018-12-20T13:47:13.621Z,52.57
2018-12-20T13:49:42.140Z,59.60
2018-12-20T13:52:10.676Z,54.33
2018-12-20T13:54:39.539Z,55.37
2018-12-20T13:57:08.059Z,56.90
2018-12-20T13:59:36.659Z,60.53
2018-12-20T14:02:05.440Z,56.10
2018-12-20T14:04:41.157Z,64.47
2018-12-20T14:07:18.699Z,52.50
2018-12-20T14:09:58.386Z,54.13
2018-12-20T14:12:34.620Z,58.30
2018-12-20T14:15:08.130Z,64.03
2018-12-20T14:17:45.700Z,68.73
2018-12-20T14:20:14.198Z,67.47
2018-12-20T14:22:42.719Z,63.87
2018-12-20T14:25:11.402Z,65.57
2018-12-20T14:27:39.911Z,60.83
2018-12-20T14:30:09.380Z,58.43
2018-12-20T14:32:37.991Z,51.87
2018-12-20T14:35:06.610Z,62.60
2018-12-20T14:37:35.096Z,61.83
2018-12-20T14:40:03.713Z,55.40
2018-12-20T14:42:32.150Z,58.17
2018-12-20T14:45:00.829Z,66.07
2018-12-20T14:47:29.282Z,76.37
2018-12-20T14:49:57.722Z,76.57
2018-12-20T14:52:29.388Z,73.77
2018-12-20T14:54:58.631Z,74.57
2018-12-20T14:57:27.079Z,66.53
2018-12-20T14:59:55.493Z,63.37
2018-12-20T15:02:23.956Z,63.67
2018-12-20T15:04:56.030Z,65.17
2018-12-20T15:07:24.567Z,72.57
2018-12-20T15:09:56.849Z,73.97
2018-12-20T15:12:28.353Z,78.77
2018-12-20T15:14:56.897Z,73.87
2018-12-20T15:17:25.290Z,75.90
2018-12-20T15:19:53.911Z,74.90
2018-12-20T15:22:22.530Z,66.00
2018-12-20T15:24:51.020Z,67.83
2018-12-20T15:27:19.587Z,65.80
2018-12-20T15:29:48.149Z,68.77
2018-12-20T15:32:16.567Z,70.30
2018-12-20T15:34:45.270Z,68.37
2018-12-20T15:37:13.719Z,70.33
2018-12-20T15:39:42.344Z,69.13
2018-12-20T15:42:10.899Z,124.80
2018-12-20T15:44:40.423Z,91.57
2018-12-20T15:47:09.102Z,78.33
2018-12-20T15:49:41.944Z,78.17
2018-12-20T15:52:11.221Z,70.93
2018-12-20T15:54:44.905Z,68.13
2018-12-20T15:57:13.499Z,70.87
2018-12-20T15:59:42.330Z,72.07
2018-12-20T16:02:11.400Z,90.37
2018-12-20T16:04:40.110Z,85.77
2018-12-20T16:07:09.065Z,88.13
2018-12-20T16:09:37.732Z,72.07
2018-12-20T16:12:06.662Z,73.27
2018-12-20T16:14:35.559Z,70.23
2018-12-20T16:17:04.073Z,65.03
2018-12-20T16:19:32.899Z,70.27
2018-12-20T16:22:01.599Z,69.17
2018-12-20T16:24:30.204Z,68.00
2018-12-20T16:26:58.739Z,72.00
2018-12-20T16:29:27.610Z,79.80
2018-12-20T16:31:56.634Z,78.00
2018-12-20T16:34:25.139Z,82.80
2018-12-20T16:36:53.815Z,87.50
2018-12-20T16:39:22.979Z,77.00
2018-12-20T16:41:51.538Z,71.63
2018-12-20T16:44:20.310Z,91.87
2018-12-20T16:46:48.848Z,75.00
2018-12-20T16:49:17.485Z,73.00
2018-12-20T16:51:45.989Z,77.17
2018-12-20T16:54:14.678Z,73.97
2018-12-20T16:56:43.144Z,75.30
2018-12-20T16:59:11.689Z,71.33
2018-12-20T17:01:40.161Z,70.80
2018-12-20T17:04:08.619Z,70.93
2018-12-20T17:06:37.122Z,74.20
2018-12-20T17:09:07.869Z,69.47
2018-12-20T17:11:36.463Z,71.57
2018-12-20T17:14:05.139Z,83.70
2018-12-20T17:16:40.886Z,78.67
2018-12-20T17:19:09.520Z,72.97
2018-12-20T17:21:38.114Z,75.10
2018-12-20T17:24:06.690Z,83.83
2018-12-20T17:26:35.430Z,97.07
2018-12-20T17:29:04.219Z,91.87
2018-12-20T17:31:33.909Z,92.57
2018-12-20T17:34:02.546Z,94.83
2018-12-20T17:36:31.591Z,90.20
2018-12-20T17:39:01.603Z,90.40
2018-12-20T17:58:12.686Z,61.33
2018-12-20T18:00:46.765Z,79.70
2018-12-20T18:03:23.531Z,87.07
2018-12-20T18:06:02.822Z,96.00
2018-12-20T18:08:58.273Z,90.33
2018-12-20T18:11:35.838Z,77.33
2018-12-20T18:14:46.831Z,77.80
2018-12-20T18:17:45.620Z,80.10
2018-12-20T18:20:27.952Z,82.57
2018-12-20T18:23:15.324Z,99.37
2018-12-20T18:30:20.438Z,82.77
2018-12-20T18:58:42.157Z,80.87
2018-12-20T19:01:15.047Z,89.27
2018-12-20T19:03:56.031Z,97.10
2018-12-20T19:12:24.530Z,102.13
2018-12-20T19:18:15.590Z,78.27
2018-12-20T19:30:51.506Z,79.70
2018-12-20T19:33:33.083Z,96.57
2018-12-20T19:36:11.590Z,91.53
2018-12-20T19:38:48.691Z,84.97
2018-12-20T19:41:45.888Z,80.97
2018-12-20T19:44:56.807Z,90.60
2018-12-20T21:07:42.693Z,75.50
2018-12-20T21:15:39.994Z,74.80
2018-12-20T21:18:14.298Z,74.13
2018-12-20T21:20:45.248Z,71.90
2018-12-20T21:23:16.499Z,67.33
2018-12-20T21:25:47.227Z,71.40
2018-12-20T21:28:17.787Z,73.33
2018-12-20T21:30:49.202Z,67.07
2018-12-20T21:33:19.828Z,63.23
2018-12-20T21:35:50.056Z,59.50
2018-12-20T21:38:21.183Z,65.23
2018-12-20T21:40:51.415Z,64.13
2018-12-20T21:43:21.230Z,59.47
2018-12-20T21:45:51.841Z,62.97
2018-12-20T21:48:21.792Z,66.77
2018-12-20T21:50:51.797Z,65.23
2018-12-20T21:53:21.813Z,67.30
2018-12-20T21:55:51.921Z,64.00
2018-12-20T21:58:21.735Z,61.53
2018-12-20T22:00:51.749Z,72.50
2018-12-20T22:03:21.354Z,58.00
2018-12-20T22:05:51.064Z,60.67
2018-12-20T22:08:21.178Z,57.60
2018-12-20T22:10:51.817Z,65.17
2018-12-20T22:13:21.743Z,60.73
2018-12-20T22:15:51.584Z,64.23
2018-12-20T22:18:22.674Z,75.63
2018-12-20T22:20:52.290Z,63.20
2018-12-20T22:23:22.304Z,69.23
2018-12-20T22:25:52.217Z,68.67
2018-12-20T22:28:22.127Z,63.37
2018-12-20T22:30:51.837Z,62.93
2018-12-20T22:33:21.560Z,61.90
2018-12-20T22:35:51.580Z,65.17
2018-12-20T22:38:21.398Z,72.30
2018-12-20T22:40:50.990Z,79.63
2018-12-20T22:43:21.017Z,80.67
2018-12-20T22:45:51.229Z,82.47
2018-12-20T22:48:21.236Z,76.70
2018-12-20T22:50:55.927Z,60.57
2018-12-20T22:53:23.231Z,65.33
2018-12-20T22:55:52.854Z,68.83
2018-12-20T22:58:22.537Z,73.03
2018-12-20T23:00:54.411Z,68.00
2018-12-20T23:03:24.418Z,66.80
2018-12-20T23:05:54.015Z,66.90
2018-12-20T23:08:23.747Z,66.53
2018-12-20T23:10:53.448Z,65.03
2018-12-20T23:13:23.251Z,66.20
2018-12-20T23:15:52.848Z,66.90
2018-12-20T23:18:22.777Z,64.73
2018-12-20T23:20:52.485Z,65.60
2018-12-20T23:23:22.182Z,59.97
2018-12-20T23:25:51.796Z,61.67
2018-12-20T23:28:21.632Z,60.40
2018-12-20T23:30:51.313Z,61.53
2018-12-20T23:33:21.222Z,59.80
2018-12-20T23:35:50.862Z,64.37
2018-12-20T23:38:20.662Z,56.57
2018-12-20T23:40:50.731Z,58.73
2018-12-20T23:43:20.689Z,61.63
2018-12-20T23:45:50.400Z,65.83
2018-12-20T23:48:20.411Z,57.97
2018-12-20T23:50:51.032Z,59.43
2018-12-20T23:53:20.766Z,61.47
2018-12-20T23:55:50.456Z,56.73
2018-12-20T23:58:20.183Z,57.47
